Time;durP1;ratioP1;P1;durP2;ratioP2;P2;SDS_P1;SDS_P2;PMS_P1;PMS_P2;Temp;Humidity;BMP_temperature;BMP_pressure;BME280_temperature;BME280_humidity;BME280_pressure;Samples;Min_cycle;Max_cycle;Signal;HPM_P1;HPM_P2
2021/04/14 00:00:28;;;;;;;5.55;4.45;;;1.80;63.00;;;;;;4979624;28;20507;-64
2021/04/14 00:02:55;;;;;;;6.05;4.47;;;1.80;62.90;;;;;;4982981;28;20550;-64
2021/04/14 00:05:27;;;;;;;6.28;4.40;;;1.70;63.00;;;;;;5002156;28;21733;-64
2021/04/14 00:08:00;;;;;;;7.00;5.00;;;1.60;62.80;;;;;;4983586;28;20046;-64
2021/04/14 00:10:32;;;;;;;7.97;4.80;;;1.60;63.00;;;;;;4997213;28;20042;-64
2021/04/14 00:12:58;;;;;;;6.88;4.72;;;1.50;63.00;;;;;;4983312;28;20031;-64
2021/04/14 00:15:31;;;;;;;6.38;4.95;;;1.50;63.00;;;;;;4981447;28;20049;-64
2021/04/14 00:17:59;;;;;;;6.90;5.00;;;1.50;64.30;;;;;;5000194;28;20065;-64
2021/04/14 00:20:30;;;;;;;6.78;4.80;;;1.40;63.40;;;;;;4982958;28;20069;-64
2021/04/14 00:23:00;;;;;;;7.03;4.65;;;1.40;63.40;;;;;;4983541;28;20507;-64
2021/04/14 00:25:30;;;;;;;6.00;4.43;;;1.40;63.50;;;;;;4982714;28;20542;-64
2021/04/14 00:28:01;;;;;;;6.65;4.70;;;1.40;63.60;;;;;;4983768;28;20236;-64
2021/04/14 00:30:27;;;;;;;7.90;4.50;;;1.30;63.70;;;;;;4982617;28;20136;-64
2021/04/14 00:32:55;;;;;;;7.90;4.80;;;1.30;63.70;;;;;;4981653;28;20609;-64
2021/04/14 00:35:26;;;;;;;6.28;4.97;;;1.30;63.80;;;;;;4984128;28;20475;-64
2021/04/14 00:37:55;;;;;;;9.98;4.93;;;1.30;63.90;;;;;;4983310;28;20544;-64
2021/04/14 00:40:31;;;;;;;10.23;4.85;;;1.30;64.00;;;;;;4982454;28;20054;-64
2021/04/14 00:43:00;;;;;;;7.95;4.80;;;1.30;64.00;;;;;;4983281;28;20046;-64
2021/04/14 00:45:28;;;;;;;8.85;5.20;;;1.20;63.80;;;;;;4983373;28;20121;-64
2021/04/14 00:47:56;;;;;;;8.55;5.18;;;1.20;63.90;;;;;;5001603;28;20078;-65
2021/04/14 00:50:26;;;;;;;7.28;4.65;;;1.10;63.80;;;;;;4988226;28;20054;-63
2021/04/14 00:52:54;;;;;;;6.78;4.80;;;1.10;64.00;;;;;;4979607;28;20047;-64
2021/04/14 00:55:25;;;;;;;6.80;4.63;;;1.00;63.90;;;;;;4982781;28;20045;-64
2021/04/14 00:57:51;;;;;;;7.18;4.53;;;1.00;63.90;;;;;;5003793;28;20579;-64
2021/04/14 01:00:30;;;;;;;7.53;4.93;;;1.00;63.90;;;;;;4981543;28;20181;-64
2021/04/14 01:03:00;;;;;;;6.25;4.70;;;1.00;64.40;;;;;;4978318;28;20038;-64
2021/04/14 01:05:30;;;;;;;7.63;5.22;;;1.00;64.00;;;;;;4995416;28;20035;-63
2021/04/14 01:07:58;;;;;;;7.47;4.72;;;1.00;64.10;;;;;;4981411;28;20042;-62
2021/04/14 01:10:24;;;;;;;9.35;5.50;;;0.90;64.20;;;;;;4989212;28;20045;-64
2021/04/14 01:12:53;;;;;;;7.32;5.15;;;0.90;64.30;;;;;;4982781;28;20038;-64
2021/04/14 01:15:33;;;;;;;8.30;5.10;;;0.90;65.40;;;;;;4979153;28;20113;-64
2021/04/14 01:18:01;;;;;;;8.00;5.10;;;0.90;65.60;;;;;;4981481;28;20038;-64
2021/04/14 01:20:34;;;;;;;11.25;5.47;;;0.80;64.40;;;;;;4981202;28;20201;-64
2021/04/14 01:23:05;;;;;;;10.00;5.30;;;0.80;64.40;;;;;;4980735;28;20066;-64
2021/04/14 01:25:35;;;;;;;13.38;5.40;;;0.70;64.40;;;;;;4980150;28;20046;-64
2021/04/14 01:28:21;;;;;;;10.85;5.63;;;0.70;64.50;;;;;;4981636;28;20039;-63
2021/04/14 01:30:52;;;;;;;11.93;6.13;;;0.70;64.60;;;;;;4981936;28;20042;-64
2021/04/14 01:33:19;;;;;;;11.18;5.65;;;0.70;64.90;;;;;;4981884;28;20042;-64
2021/04/14 01:35:49;;;;;;;9.95;5.25;;;0.60;64.70;;;;;;5002458;28;20054;-65
2021/04/14 01:38:20;;;;;;;11.38;6.10;;;0.60;65.10;;;;;;4982005;28;20034;-64
2021/04/14 01:40:51;;;;;;;10.52;5.10;;;0.60;65.10;;;;;;4992432;28;20484;-64
2021/04/14 01:43:19;;;;;;;9.63;5.18;;;0.50;64.90;;;;;;4981965;28;20026;-64
2021/04/14 01:45:52;;;;;;;11.48;5.78;;;0.50;65.00;;;;;;4980735;28;20045;-64
2021/04/14 01:48:19;;;;;;;12.00;5.70;;;0.50;65.30;;;;;;4982431;28;20035;-64
2021/04/14 01:50:47;;;;;;;9.73;5.43;;;0.50;65.10;;;;;;4981685;28;20504;-64
2021/04/14 01:53:16;;;;;;;10.13;5.03;;;0.50;65.10;;;;;;4981712;28;20034;-64
2021/04/14 01:55:47;;;;;;;11.13;5.20;;;0.50;65.30;;;;;;4997092;28;20049;-64
2021/04/14 01:58:15;;;;;;;11.80;5.45;;;0.50;65.30;;;;;;4981247;28;20062;-64
2021/04/14 02:00:54;;;;;;;10.43;5.63;;;0.50;65.30;;;;;;4980434;28;20047;-64
2021/04/14 02:03:26;;;;;;;10.52;5.32;;;0.50;65.70;;;;;;4993028;28;20041;-64
2021/04/14 02:05:51;;;;;;;9.65;5.72;;;0.60;65.40;;;;;;4978646;28;20427;-64
2021/04/14 02:08:19;;;;;;;10.45;5.75;;;0.60;65.30;;;;;;4980450;28;20034;-64
2021/04/14 02:10:50;;;;;;;12.48;6.00;;;0.60;65.10;;;;;;4977149;28;20070;-64
2021/04/14 02:13:30;;;;;;;11.52;5.47;;;0.60;64.90;;;;;;4998448;28;20079;-65
2021/04/14 02:15:58;;;;;;;10.00;5.72;;;0.60;65.10;;;;;;4999565;28;20042;-64
2021/04/14 02:18:29;;;;;;;11.77;6.00;;;0.60;64.90;;;;;;4995918;28;20035;-64
2021/04/14 02:21:00;;;;;;;10.18;5.78;;;0.60;64.90;;;;;;4976825;28;20042;-63
2021/04/14 02:23:33;;;;;;;10.07;5.45;;;0.60;64.90;;;;;;4981881;28;20414;-65
2021/04/14 02:26:06;;;;;;;11.40;5.32;;;0.50;64.80;;;;;;4981459;28;20108;-64
2021/04/14 02:28:34;;;;;;;9.90;5.75;;;0.50;64.90;;;;;;4978518;28;20515;-64
2021/04/14 02:31:04;;;;;;;8.52;5.63;;;0.50;64.90;;;;;;4980148;28;20101;-65
2021/04/14 02:33:32;;;;;;;10.82;5.30;;;0.50;64.90;;;;;;4979673;28;20032;-64
2021/04/14 02:36:02;;;;;;;9.18;6.00;;;0.50;64.90;;;;;;4980638;28;20062;-63
2021/04/14 02:38:33;;;;;;;9.95;5.63;;;0.50;65.00;;;;;;4979751;28;20034;-64
2021/04/14 02:41:06;;;;;;;8.70;5.55;;;0.50;64.90;;;;;;4980059;28;20038;-63
2021/04/14 02:43:36;;;;;;;9.82;5.32;;;0.50;64.90;;;;;;4978745;28;20026;-64
2021/04/14 02:46:07;;;;;;;11.55;5.50;;;0.40;64.90;;;;;;4980286;28;20079;-64
2021/04/14 02:48:37;;;;;;;9.45;5.57;;;0.50;64.90;;;;;;4978853;28;20152;-63
2021/04/14 02:51:08;;;;;;;7.47;5.15;;;0.40;65.00;;;;;;4979347;28;20463;-64
2021/04/14 02:53:39;;;;;;;7.43;5.07;;;0.40;65.00;;;;;;4978663;28;20516;-64
2021/04/14 02:56:07;;;;;;;8.02;5.45;;;0.40;65.10;;;;;;4979959;28;20043;-64
2021/04/14 02:58:38;;;;;;;8.25;5.55;;;0.40;65.20;;;;;;4980000;28;20054;-64
2021/04/14 03:01:08;;;;;;;10.57;5.60;;;0.40;66.20;;;;;;4981235;28;20030;-63
2021/04/14 03:03:36;;;;;;;8.38;5.30;;;0.30;65.30;;;;;;4979380;28;20039;-64
2021/04/14 03:06:07;;;;;;;47.05;20.27;;;0.30;65.20;;;;;;4979725;28;20031;-64
2021/04/14 03:08:37;;;;;;;12.20;7.50;;;0.30;66.30;;;;;;4979656;28;20022;-64
2021/04/14 03:11:03;;;;;;;9.88;6.20;;;0.30;65.40;;;;;;4975768;28;20062;-65
2021/04/14 03:13:31;;;;;;;8.60;5.60;;;0.30;65.40;;;;;;4979569;28;20699;-64
2021/04/14 03:16:04;;;;;;;10.38;5.55;;;0.30;65.30;;;;;;4997576;28;20031;-63
2021/04/14 03:18:31;;;;;;;8.52;4.72;;;0.40;65.40;;;;;;4977748;28;20035;-64
2021/04/14 03:20:59;;;;;;;6.45;4.85;;;0.40;65.30;;;;;;4988993;28;20049;-64
2021/04/14 03:23:30;;;;;;;8.07;5.30;;;0.30;65.20;;;;;;4979038;28;20138;-63
2021/04/14 03:26:04;;;;;;;7.63;4.90;;;0.30;65.30;;;;;;4980094;28;20055;-64
2021/04/14 03:28:34;;;;;;;5.95;4.70;;;0.30;65.30;;;;;;4976937;28;20686;-64
2021/04/14 03:31:07;;;;;;;7.38;4.45;;;0.30;65.30;;;;;;4979439;28;20034;-64
2021/04/14 03:33:35;;;;;;;6.75;4.38;;;0.30;65.40;;;;;;4978094;28;20030;-64
2021/04/14 03:36:06;;;;;;;6.35;4.65;;;0.20;65.40;;;;;;4992172;28;20038;-64
2021/04/14 03:38:34;;;;;;;6.05;4.60;;;0.20;65.30;;;;;;4978852;28;20589;-64
2021/04/14 03:41:00;;;;;;;5.65;4.45;;;0.30;65.40;;;;;;4998251;28;20442;-64
2021/04/14 03:43:26;;;;;;;7.65;4.55;;;0.30;65.30;;;;;;4976126;28;20049;-65
2021/04/14 03:45:58;;;;;;;11.10;5.53;;;0.30;65.20;;;;;;5001991;28;20035;-64
2021/04/14 03:48:27;;;;;;;7.45;5.00;;;0.20;65.10;;;;;;4979402;28;20045;-64
2021/04/14 03:50:55;;;;;;;7.97;4.85;;;0.30;65.30;;;;;;4978504;28;20120;-64
2021/04/14 03:53:38;;;;;;;7.07;5.05;;;0.20;65.00;;;;;;4976074;28;20081;-64
2021/04/14 03:56:09;;;;;;;7.95;5.50;;;0.20;65.10;;;;;;4977721;28;20066;-64
2021/04/14 03:58:39;;;;;;;8.32;5.03;;;0.10;65.10;;;;;;4978069;28;20844;-64
2021/04/14 04:01:15;;;;;;;7.43;4.90;;;0.10;65.10;;;;;;4997505;28;20058;-65
2021/04/14 04:03:41;;;;;;;6.28;4.75;;;0.10;65.20;;;;;;4979083;28;20118;-64
2021/04/14 04:06:07;;;;;;;8.93;5.15;;;0.10;65.10;;;;;;4975310;28;20047;-64
2021/04/14 04:08:34;;;;;;;7.47;5.00;;;0.00;65.00;;;;;;4975836;28;20033;-64
2021/04/14 04:11:05;;;;;;;7.93;5.18;;;0.10;65.30;;;;;;4983579;28;20097;-64
2021/04/14 04:13:32;;;;;;;6.75;4.97;;;0.00;65.20;;;;;;4977766;28;20330;-64
2021/04/14 04:15:58;;;;;;;8.98;5.57;;;0.00;65.10;;;;;;4979548;28;20089;-65
2021/04/14 04:18:28;;;;;;;8.70;5.60;;;0.00;65.30;;;;;;4979375;28;20031;-65
2021/04/14 04:21:01;;;;;;;9.55;6.57;;;-0.10;65.30;;;;;;4975670;28;20042;-65
2021/04/14 04:23:26;;;;;;;10.75;7.15;;;-0.10;65.50;;;;;;4979541;28;20117;-64
2021/04/14 04:25:55;;;;;;;12.38;7.05;;;-0.10;65.50;;;;;;4981574;28;20606;-64
2021/04/14 04:28:21;;;;;;;12.50;6.97;;;-0.10;65.60;;;;;;4982989;28;20138;-68
2021/04/14 04:30:52;;;;;;;13.77;7.53;;;-0.20;65.70;;;;;;4997016;28;20043;-64
2021/04/14 04:33:22;;;;;;;11.27;6.20;;;-0.20;65.70;;;;;;4981547;28;20039;-64
2021/04/14 04:35:48;;;;;;;10.13;6.22;;;-0.20;65.90;;;;;;4979935;28;20455;-64
2021/04/14 04:38:18;;;;;;;10.38;6.72;;;-0.20;65.80;;;;;;4981117;28;20026;-64
2021/04/14 04:40:44;;;;;;;9.40;6.18;;;-0.30;65.70;;;;;;4982295;28;20065;-64
2021/04/14 04:43:15;;;;;;;10.10;6.03;;;-0.30;65.80;;;;;;5004369;28;20538;-64
2021/04/14 04:45:41;;;;;;;13.38;8.73;;;-0.30;65.90;;;;;;4982285;28;20555;-64
2021/04/14 04:48:13;;;;;;;12.50;7.95;;;-0.30;65.90;;;;;;4982846;28;20039;-64
2021/04/14 04:50:43;;;;;;;12.35;7.85;;;-0.30;66.00;;;;;;4981368;28;20974;-64
2021/04/14 04:53:21;;;;;;;14.13;7.85;;;-0.30;65.80;;;;;;4981924;28;20042;-64
2021/04/14 04:55:48;;;;;;;17.17;7.20;;;-0.30;66.10;;;;;;4982709;28;20097;-65
2021/04/14 04:58:17;;;;;;;12.60;6.88;;;-0.20;65.90;;;;;;4981892;28;20049;-64
2021/04/14 05:00:47;;;;;;;12.15;6.60;;;-0.30;65.80;;;;;;4982536;28;20505;-63
2021/04/14 05:03:16;;;;;;;14.98;6.95;;;-0.30;65.80;;;;;;4982804;28;20039;-64
2021/04/14 05:05:42;;;;;;;10.20;6.43;;;-0.30;65.80;;;;;;5003608;28;20031;-64
2021/04/14 05:08:11;;;;;;;12.23;6.85;;;-0.30;65.80;;;;;;4982475;28;20076;-64
2021/04/14 05:10:39;;;;;;;11.98;6.45;;;-0.40;65.80;;;;;;4979016;28;20129;-64
2021/04/14 05:13:09;;;;;;;13.10;6.38;;;-0.40;65.90;;;;;;4982509;28;20105;-64
2021/04/14 05:15:43;;;;;;;14.52;7.00;;;-0.40;66.00;;;;;;4982394;28;20581;-64
2021/04/14 05:18:14;;;;;;;14.02;7.32;;;-0.40;66.30;;;;;;5003204;28;20038;-64
2021/04/14 05:20:43;;;;;;;12.18;7.00;;;-0.40;66.50;;;;;;4981752;28;20034;-64
2021/04/14 05:23:11;;;;;;;12.63;6.43;;;-0.40;66.60;;;;;;5001932;28;20042;-65
2021/04/14 05:25:41;;;;;;;10.88;6.22;;;-0.50;66.80;;;;;;4982112;28;20039;-64
2021/04/14 05:28:11;;;;;;;13.20;6.35;;;-0.50;67.10;;;;;;4981613;28;20055;-64
2021/04/14 05:30:40;;;;;;;10.63;6.47;;;-0.50;67.40;;;;;;4981882;28;20034;-64
2021/04/14 05:33:09;;;;;;;11.07;6.43;;;-0.40;67.60;;;;;;4982872;28;20407;-64
2021/04/14 05:35:42;;;;;;;10.82;6.40;;;-0.50;67.60;;;;;;4981339;28;20508;-64
2021/04/14 05:38:15;;;;;;;14.27;7.25;;;-0.40;67.80;;;;;;4981869;28;20046;-63
2021/04/14 05:40:45;;;;;;;13.40;7.30;;;-0.30;67.90;;;;;;4980455;28;22269;-65
2021/04/14 05:43:23;;;;;;;14.02;7.50;;;-0.30;67.90;;;;;;4981969;28;20511;-64
2021/04/14 05:46:18;;;;;;;17.17;8.07;;;-0.20;68.00;;;;;;4981545;28;20435;-64
2021/04/14 05:48:46;;;;;;;;;;;-0.10;68.70;;;;;;4985571;28;20041;-64
2021/04/14 05:51:17;;;;;;;17.85;7.63;;;0.00;68.80;;;;;;4982501;28;19940;-64
2021/04/14 05:53:46;;;;;;;15.88;8.48;;;0.00;67.40;;;;;;4981859;28;20411;-64
2021/04/14 05:56:12;;;;;;;17.50;7.63;;;0.10;67.50;;;;;;4981560;28;20048;-65
2021/04/14 05:58:41;;;;;;;15.02;7.40;;;0.20;67.70;;;;;;4981084;28;20023;-64
2021/04/14 06:01:11;;;;;;;12.27;7.50;;;0.20;67.70;;;;;;4980958;28;20126;-64
2021/04/14 06:03:41;;;;;;;11.63;6.68;;;0.30;68.00;;;;;;4982032;28;20049;-64
2021/04/14 06:06:10;;;;;;;12.10;7.10;;;0.40;68.10;;;;;;4981097;28;20134;-64
2021/04/14 06:08:38;;;;;;;11.02;7.05;;;0.40;67.90;;;;;;4981512;28;20026;-64
2021/04/14 06:11:11;;;;;;;12.88;6.90;;;0.50;67.90;;;;;;4978848;28;20042;-64
2021/04/14 06:13:44;;;;;;;13.85;6.90;;;0.60;67.90;;;;;;4981662;28;20031;-64
2021/04/14 06:16:15;;;;;;;12.43;7.00;;;0.60;67.70;;;;;;4981502;28;20041;-64
2021/04/14 06:18:41;;;;;;;12.35;6.97;;;0.70;67.90;;;;;;4980756;28;20077;-64
2021/04/14 06:21:07;;;;;;;11.95;7.32;;;0.80;68.20;;;;;;5001506;28;20039;-64
2021/04/14 06:23:35;;;;;;;14.55;7.97;;;0.80;68.00;;;;;;4981210;28;20579;-64
2021/04/14 06:26:18;;;;;;;11.85;7.88;;;0.90;68.20;;;;;;4981212;28;20092;-64
2021/04/14 06:28:41;;;;;;;8.70;6.10;;;1.00;68.10;;;;;;4980600;28;20125;-64
2021/04/14 06:31:08;;;;;;;8.63;6.25;;;1.00;67.90;;;;;;4981279;28;20042;-64
2021/04/14 06:33:39;;;;;;;10.38;6.53;;;1.10;67.90;;;;;;5002559;28;20572;-64
2021/04/14 06:36:13;;;;;;;12.00;6.75;;;1.20;67.70;;;;;;4980713;28;20121;-64
2021/04/14 06:38:44;;;;;;;11.13;6.80;;;1.30;67.90;;;;;;4980508;28;20043;-64
2021/04/14 06:44:12;;;;;;;9.95;5.93;;;1.50;68.60;;;;;;4980838;28;20043;-64
2021/04/14 06:46:42;;;;;;;13.02;7.25;;;1.50;68.00;;;;;;4979446;28;20149;-64
2021/04/14 06:49:39;;;;;;;13.73;7.43;;;1.60;68.10;;;;;;4980785;28;20495;-64
2021/04/14 06:52:24;;;;;;;12.45;6.97;;;1.70;68.80;;;;;;4971162;28;20054;-64
2021/04/14 06:55:07;;;;;;;13.50;6.77;;;1.70;67.90;;;;;;4980606;28;20030;-64
2021/04/14 06:57:40;;;;;;;10.38;6.68;;;1.80;68.00;;;;;;4979715;28;20110;-64
2021/04/14 07:00:21;;;;;;;12.65;6.82;;;1.90;68.00;;;;;;4981920;28;20689;-65
2021/04/14 07:02:56;;;;;;;11.63;6.50;;;1.90;68.20;;;;;;4973974;28;20101;-64
2021/04/14 07:05:38;;;;;;;10.77;6.63;;;1.90;67.90;;;;;;4978319;28;20046;-64
2021/04/14 07:08:13;;;;;;;12.38;6.63;;;2.10;67.90;;;;;;4981213;28;20039;-63
2021/04/14 07:10:39;;;;;;;;;;;2.10;67.70;;;;;;4983119;28;20046;-64
2021/04/14 07:13:09;;;;;;;11.95;6.88;;;2.30;68.20;;;;;;4980719;28;20331;-64
2021/04/14 07:15:35;;;;;;;10.48;6.85;;;2.30;67.50;;;;;;4981398;28;20030;-64
2021/04/14 07:18:22;;;;;;;10.38;6.15;;;2.30;67.50;;;;;;4985711;28;20035;-64
2021/04/14 07:21:18;;;;;;;9.25;5.75;;;2.40;67.90;;;;;;5000561;28;20038;-65
2021/04/14 07:23:58;;;;;;;11.70;5.80;;;2.60;67.60;;;;;;5000825;28;20049;-64
2021/04/14 07:26:38;;;;;;;8.60;5.90;;;2.60;67.30;;;;;;4979967;28;20100;-63
2021/04/14 07:29:38;;;;;;;10.75;6.15;;;2.70;67.10;;;;;;4980731;28;20035;-64
2021/04/14 07:32:19;;;;;;;10.82;6.50;;;2.80;67.00;;;;;;4981884;28;20038;-64
2021/04/14 07:35:02;;;;;;;8.77;5.82;;;2.90;67.00;;;;;;4980398;28;20045;-63
2021/04/14 07:37:54;;;;;;;12.43;6.20;;;3.00;66.80;;;;;;4980322;28;20527;-64
2021/04/14 07:40:29;;;;;;;10.60;5.88;;;3.00;66.90;;;;;;5000984;28;20030;-64
2021/04/14 07:43:12;;;;;;;9.85;5.43;;;3.10;66.60;;;;;;4980588;28;20392;-64
2021/04/14 07:45:43;;;;;;;14.20;6.28;;;3.20;66.50;;;;;;4980222;28;20168;-64
2021/04/14 07:48:27;;;;;;;9.52;5.43;;;3.30;66.30;;;;;;4979568;28;20054;-64
2021/04/14 07:50:58;;;;;;;10.10;6.00;;;3.40;66.10;;;;;;4979226;28;20325;-63
2021/04/14 07:53:35;;;;;;;10.93;5.53;;;3.50;65.80;;;;;;4980147;28;20034;-64
2021/04/14 07:56:11;;;;;;;9.50;5.90;;;3.60;65.90;;;;;;4980641;28;20400;-64
2021/04/14 07:58:42;;;;;;;9.73;5.55;;;3.70;66.00;;;;;;4979372;28;20073;-63
2021/04/14 08:01:26;;;;;;;8.18;5.30;;;3.80;65.60;;;;;;5005465;28;20034;-64
2021/04/14 08:04:10;;;;;;;9.63;5.15;;;3.80;65.40;;;;;;4985290;28;20138;-64
2021/04/14 08:06:43;;;;;;;6.80;4.65;;;3.90;65.30;;;;;;4982951;28;20110;-64
2021/04/14 08:09:12;;;;;;;7.03;4.63;;;4.00;65.30;;;;;;4984567;28;20411;-64
2021/04/14 08:11:43;;;;;;;6.22;4.70;;;4.10;65.30;;;;;;4983010;28;20034;-64
2021/04/14 08:14:35;;;;;;;8.88;5.22;;;4.20;65.40;;;;;;4995254;28;20082;-63
2021/04/14 08:17:20;;;;;;;8.90;4.53;;;4.30;65.30;;;;;;5004420;28;20053;-63
2021/04/14 08:20:06;;;;;;;6.25;3.85;;;4.40;65.10;;;;;;5004845;28;20043;-64
2021/04/14 08:22:32;;;;;;;4.72;3.35;;;4.60;64.70;;;;;;4983160;28;20407;-64
2021/04/14 08:25:02;;;;;;;5.50;3.20;;;4.70;64.60;;;;;;4983329;28;20054;-63
2021/04/14 08:27:40;;;;;;;5.43;3.10;;;4.80;64.30;;;;;;4983901;28;20034;-63
2021/04/14 08:30:10;;;;;;;8.68;3.90;;;4.90;64.00;;;;;;4984219;28;20031;-63
2021/04/14 08:32:53;;;;;;;6.25;3.75;;;5.10;64.00;;;;;;4982830;28;20519;-64
2021/04/14 08:35:34;;;;;;;6.40;3.72;;;5.30;63.70;;;;;;4984080;28;20082;-64
2021/04/14 08:38:12;;;;;;;6.63;3.53;;;5.40;63.40;;;;;;4983178;28;20043;-63
2021/04/14 08:40:59;;;;;;;9.32;2.92;;;5.60;63.20;;;;;;4984117;28;20944;-64
2021/04/14 08:43:39;;;;;;;7.18;3.03;;;5.70;62.40;;;;;;4983034;28;20385;-64
2021/04/14 08:46:17;;;;;;;4.13;2.70;;;5.90;61.90;;;;;;4984102;28;20507;-63
2021/04/14 08:48:48;;;;;;;8.52;3.40;;;6.00;61.60;;;;;;5004327;28;20130;-64
2021/04/14 08:51:17;;;;;;;5.05;2.70;;;6.10;60.90;;;;;;4982751;28;20037;-64
2021/04/14 08:53:50;;;;;;;5.95;2.70;;;6.20;60.90;;;;;;4987968;28;20038;-63
2021/04/14 08:56:18;;;;;;;5.63;3.03;;;6.40;60.30;;;;;;4982231;28;20034;-62
2021/04/14 08:58:46;;;;;;;5.10;2.55;;;6.50;60.00;;;;;;4994762;28;20041;-63
2021/04/14 09:01:20;;;;;;;7.15;2.25;;;6.60;60.10;;;;;;4983586;28;20034;-64
2021/04/14 09:03:52;;;;;;;5.15;2.97;;;6.70;59.90;;;;;;4982923;28;20043;-64
2021/04/14 09:06:22;;;;;;;6.43;2.90;;;6.80;59.80;;;;;;4982936;28;20049;-63
2021/04/14 09:08:54;;;;;;;4.30;2.55;;;7.00;59.50;;;;;;4997013;28;20562;-64
2021/04/14 09:11:26;;;;;;;5.60;2.35;;;7.10;59.00;;;;;;4981055;28;20030;-65
2021/04/14 09:14:05;;;;;;;4.60;2.70;;;7.20;58.60;;;;;;4983565;28;20479;-65
2021/04/14 09:16:36;;;;;;;6.63;2.47;;;7.30;57.90;;;;;;4982430;28;20809;-64
2021/04/14 09:19:09;;;;;;;5.40;2.30;;;7.40;57.70;;;;;;4984070;28;20537;-64
2021/04/14 09:21:49;;;;;;;4.60;2.40;;;7.50;56.90;;;;;;4982690;28;20031;-64
2021/04/14 09:24:31;;;;;;;4.85;2.50;;;7.50;56.20;;;;;;4982006;28;20045;-64
2021/04/14 09:27:05;;;;;;;4.50;2.38;;;7.60;55.20;;;;;;4983107;28;20030;-64
2021/04/14 09:30:07;;;;;;;2.90;2.08;;;7.70;56.20;;;;;;4982782;28;20476;-65
2021/04/14 09:32:50;;;;;;;3.92;2.60;;;7.80;56.00;;;;;;4982927;28;20110;-64
2021/04/14 09:35:38;;;;;;;5.10;2.42;;;7.90;55.60;;;;;;4981602;28;20030;-64
2021/04/14 09:38:29;;;;;;;5.40;2.17;;;8.00;54.70;;;;;;4982072;28;20496;-64
2021/04/14 09:41:12;;;;;;;11.20;2.30;;;8.10;54.90;;;;;;4982087;28;20034;-64
2021/04/14 09:43:44;;;;;;;4.05;2.25;;;8.10;54.70;;;;;;4983042;28;20035;-64
2021/04/14 09:46:33;;;;;;;4.30;2.38;;;8.20;55.20;;;;;;4982174;28;20056;-64
2021/04/14 09:49:17;;;;;;;5.22;2.90;;;8.20;54.00;;;;;;4982826;28;20034;-64
2021/04/14 09:51:57;;;;;;;3.72;2.00;;;8.30;54.00;;;;;;4981787;28;20088;-66
2021/04/14 09:54:30;;;;;;;4.05;2.33;;;8.30;54.00;;;;;;4982303;28;20396;-65
2021/04/14 09:57:02;;;;;;;6.75;2.30;;;8.30;54.10;;;;;;4981988;28;20058;-64
2021/04/14 09:59:37;;;;;;;2.50;2.00;;;8.40;53.60;;;;;;4980716;28;20039;-64
2021/04/14 10:02:15;;;;;;;2.67;2.10;;;8.40;53.40;;;;;;4982527;28;20515;-63
2021/04/14 10:04:46;;;;;;;6.03;2.28;;;8.40;52.50;;;;;;4981632;28;20097;-64
2021/04/14 10:07:19;;;;;;;5.70;2.10;;;8.40;53.20;;;;;;4986525;28;20031;-64
2021/04/14 10:09:48;;;;;;;4.57;2.60;;;8.40;53.00;;;;;;4979460;28;20085;-64
2021/04/14 10:12:26;;;;;;;3.05;2.38;;;8.40;52.90;;;;;;4980369;28;20053;-64
2021/04/14 10:14:58;;;;;;;4.43;2.38;;;8.40;52.60;;;;;;4982580;28;20042;-64
2021/04/14 10:17:29;;;;;;;4.57;2.03;;;8.50;52.60;;;;;;4985371;28;20041;-64
2021/04/14 10:20:06;;;;;;;2.22;2.03;;;8.50;52.90;;;;;;4981973;28;20535;-64
2021/04/14 10:22:37;;;;;;;2.92;2.25;;;8.50;52.90;;;;;;4980870;28;20035;-64
2021/04/14 10:25:23;;;;;;;4.28;2.03;;;8.50;52.60;;;;;;4981923;28;20045;-64
2021/04/14 10:28:00;;;;;;;4.40;2.13;;;8.50;51.80;;;;;;4980160;28;20117;-63
2021/04/14 10:30:31;;;;;;;4.93;2.20;;;8.50;52.10;;;;;;4980626;28;20070;-64
2021/04/14 10:33:08;;;;;;;4.63;2.28;;;8.50;52.40;;;;;;4982400;28;20507;-64
2021/04/14 10:35:37;;;;;;;3.92;2.20;;;8.40;51.10;;;;;;4980806;28;20039;-64
2021/04/14 10:38:08;;;;;;;2.90;2.33;;;8.40;52.10;;;;;;4981608;28;20035;-64
2021/04/14 10:40:48;;;;;;;5.25;4.38;;;8.40;52.00;;;;;;4980042;28;20036;-64
2021/04/14 10:43:20;;;;;;;4.97;2.78;;;8.40;51.80;;;;;;4980436;28;20518;-64
2021/04/14 10:46:07;;;;;;;6.57;5.15;;;8.40;52.00;;;;;;5011899;28;20039;-64
2021/04/14 10:48:40;;;;;;;4.25;2.70;;;8.40;51.40;;;;;;4980676;28;20030;-64
2021/04/14 10:51:39;;;;;;;12.48;7.88;;;8.40;52.00;;;;;;4981767;28;20034;-64
2021/04/14 10:54:11;;;;;;;5.30;2.70;;;8.50;51.10;;;;;;4982012;28;20560;-64
2021/04/14 10:56:39;;;;;;;3.88;1.95;;;8.60;51.80;;;;;;4981007;28;20121;-64
2021/04/14 10:59:19;;;;;;;5.03;2.03;;;8.70;51.60;;;;;;4982148;28;20062;-64
2021/04/14 11:01:50;;;;;;;3.88;1.60;;;8.70;49.70;;;;;;4978695;28;20037;-64
2021/04/14 11:04:18;;;;;;;3.72;2.97;;;8.80;50.40;;;;;;4980522;28;20034;-64
2021/04/14 11:06:48;;;;;;;2.42;1.75;;;8.90;51.00;;;;;;4980039;28;20143;-64
2021/04/14 11:09:16;;;;;;;2.53;1.50;;;8.90;50.70;;;;;;4981024;28;20026;-64
2021/04/14 11:11:46;;;;;;;3.03;1.25;;;9.10;50.50;;;;;;4977905;28;20038;-65
2021/04/14 11:14:14;;;;;;;2.28;1.63;;;9.20;50.70;;;;;;4993087;28;20523;-64
2021/04/14 11:16:43;;;;;;;3.00;1.52;;;9.40;50.20;;;;;;4980037;28;20093;-64
2021/04/14 11:19:16;;;;;;;2.55;1.60;;;9.50;49.90;;;;;;4979164;28;20101;-64
2021/04/14 11:21:43;;;;;;;3.15;1.90;;;9.60;49.00;;;;;;4980776;28;20106;-64
2021/04/14 11:24:10;;;;;;;3.08;1.80;;;9.60;48.80;;;;;;4996119;28;20039;-64
2021/04/14 11:26:57;;;;;;;2.95;1.67;;;9.60;48.20;;;;;;5001557;28;20034;-64
2021/04/14 11:29:38;;;;;;;2.85;1.80;;;9.60;48.30;;;;;;4979876;28;20114;-64
2021/04/14 11:32:22;;;;;;;2.90;1.88;;;9.40;49.30;;;;;;4980935;28;20081;-64
2021/04/14 11:35:04;;;;;;;2.58;2.25;;;9.30;49.90;;;;;;4979302;28;20038;-64
2021/04/14 11:37:52;;;;;;;5.10;1.85;;;9.20;49.60;;;;;;4980571;28;20030;-65
2021/04/14 11:40:21;;;;;;;5.15;2.00;;;9.00;49.80;;;;;;4978926;28;20034;-64
2021/04/14 11:43:04;;;;;;;5.32;2.33;;;8.80;50.50;;;;;;4979640;28;20030;-64
2021/04/14 11:45:41;;;;;;;5.53;1.98;;;8.70;50.70;;;;;;4980129;28;20058;-64
2021/04/14 11:48:28;;;;;;;2.30;1.75;;;8.40;50.60;;;;;;4995659;28;20100;-64
2021/04/14 11:50:56;;;;;;;4.15;1.90;;;8.30;51.10;;;;;;4979067;28;20038;-64
2021/04/14 11:53:33;;;;;;;4.88;2.25;;;8.10;51.10;;;;;;5001147;28;20034;-64
2021/04/14 11:56:01;;;;;;;4.97;2.50;;;7.90;51.50;;;;;;4980926;28;20043;-64
2021/04/14 11:58:48;;;;;;;2.85;2.10;;;7.80;52.00;;;;;;4978143;28;20618;-64
2021/04/14 12:01:27;;;;;;;2.72;2.10;;;7.80;52.30;;;;;;4978694;28;20035;-64
2021/04/14 12:03:58;;;;;;;6.78;2.25;;;7.70;52.90;;;;;;4981522;28;20042;-64
2021/04/14 12:06:26;;;;;;;3.70;2.22;;;7.70;52.90;;;;;;4979168;28;20034;-63
2021/04/14 12:08:53;;;;;;;3.75;2.10;;;7.70;53.20;;;;;;4981346;28;20109;-64
2021/04/14 12:11:27;;;;;;;4.60;2.40;;;7.70;53.30;;;;;;4978638;28;20042;-64
2021/04/14 12:14:00;;;;;;;4.95;1.95;;;7.70;52.30;;;;;;4980206;28;20035;-64
2021/04/14 12:16:33;;;;;;;2.20;1.75;;;7.70;52.90;;;;;;4979489;28;20030;-64
2021/04/14 12:18:58;;;;;;;2.28;1.83;;;7.70;53.30;;;;;;4980992;28;20114;-65
2021/04/14 12:21:30;;;;;;;4.93;2.05;;;7.70;52.90;;;;;;4980322;28;20464;-64
2021/04/14 12:23:58;;;;;;;3.33;2.05;;;7.80;53.00;;;;;;4981637;28;20034;-64
2021/04/14 12:26:26;;;;;;;4.53;2.15;;;7.80;52.90;;;;;;4995256;28;20034;-64
2021/04/14 12:28:52;;;;;;;3.65;2.20;;;7.80;52.40;;;;;;4980314;28;20528;-64
2021/04/14 12:31:20;;;;;;;2.95;2.20;;;7.90;52.60;;;;;;4978886;28;20049;-64
2021/04/14 12:33:45;;;;;;;6.20;2.25;;;7.90;52.60;;;;;;4979846;28;20563;-64
2021/04/14 12:36:13;;;;;;;5.18;2.20;;;7.90;52.80;;;;;;4980411;28;20062;-64
2021/04/14 12:38:46;;;;;;;2.60;2.15;;;7.90;50.80;;;;;;4997449;28;20031;-65
2021/04/14 12:41:11;;;;;;;3.35;2.30;;;8.00;51.20;;;;;;4979850;28;20027;-64
2021/04/14 12:43:39;;;;;;;2.53;1.90;;;8.00;51.40;;;;;;4979521;28;20038;-64
2021/04/14 12:46:12;;;;;;;4.32;2.05;;;8.00;51.70;;;;;;4983703;28;20042;-64
2021/04/14 12:48:43;;;;;;;5.45;2.13;;;8.10;51.90;;;;;;4983565;28;20034;-64
2021/04/14 12:51:28;;;;;;;5.88;1.95;;;8.20;51.90;;;;;;4982931;28;20046;-64
2021/04/14 12:54:00;;;;;;;;;;;8.20;51.80;;;;;;4984701;28;20251;-64
2021/04/14 12:56:32;;;;;;;4.07;2.40;;;8.30;52.00;;;;;;4980834;28;19914;-63
2021/04/14 12:59:05;;;;;;;3.88;1.75;;;8.40;52.00;;;;;;4983866;28;20046;-64
2021/04/14 13:01:38;;;;;;;2.90;2.00;;;8.50;51.50;;;;;;4982954;28;20038;-65
2021/04/14 13:04:35;;;;;;;3.50;1.97;;;8.50;51.60;;;;;;4984372;28;20038;-64
2021/04/14 13:07:18;;;;;;;4.22;2.10;;;8.60;51.20;;;;;;4982205;28;20030;-64
2021/04/14 13:09:50;;;;;;;2.60;2.05;;;8.70;49.70;;;;;;4996862;28;20438;-64
2021/04/14 13:12:19;;;;;;;3.17;1.88;;;8.80;50.60;;;;;;4979659;28;20045;-64
2021/04/14 13:14:48;;;;;;;2.00;1.80;;;8.80;51.00;;;;;;5003942;28;20038;-64
2021/04/14 13:17:22;;;;;;;2.92;1.90;;;8.90;51.00;;;;;;4982526;28;20077;-64
2021/04/14 13:19:51;;;;;;;3.80;1.98;;;9.00;50.00;;;;;;4982290;28;20034;-64
2021/04/14 13:22:41;;;;;;;4.32;1.98;;;9.10;50.60;;;;;;4983183;28;20118;-64
2021/04/14 13:25:36;;;;;;;4.05;2.00;;;9.10;50.00;;;;;;4982946;28;20070;-64